Time;durP1;ratioP1;P1;durP2;ratioP2;P2;SDS_P1;SDS_P2;PMS_P1;PMS_P2;Temp;Humidity;BMP_temperature;BMP_pressure;BME280_temperature;BME280_humidity;BME280_pressure;Samples;Min_cycle;Max_cycle;Signal;HPM_P1;HPM_P2
2022/11/26 00:00:48;;;;;;;9.82;5.63;;;;;;;;;;5048310;28;20106;-84
2022/11/26 00:03:13;;;;;;;10.68;5.38;;;;;;;;;;5048852;28;20437;-85
2022/11/26 00:05:40;;;;;;;9.87;5.50;;;;;;;;;;5049403;28;20043;-85
2022/11/26 00:08:14;;;;;;;8.20;4.90;;;;;;;;;;5030839;28;20279;-84
2022/11/26 00:10:39;;;;;;;12.57;5.80;;;;;;;;;;5049716;28;20090;-84
2022/11/26 00:13:09;;;;;;;12.33;6.60;;;;;;;;;;5048671;28;20045;-85
2022/11/26 00:15:34;;;;;;;10.15;6.05;;;;;;;;;;5031474;28;20181;-85
2022/11/26 00:17:59;;;;;;;13.70;5.73;;;;;;;;;;5049642;28;20056;-85
2022/11/26 00:20:29;;;;;;;10.88;5.43;;;;;;;;;;5049113;28;20275;-85
2022/11/26 00:22:55;;;;;;;12.45;5.55;;;;;;;;;;5050381;28;20048;-85
2022/11/26 00:25:22;;;;;;;8.05;4.93;;;;;;;;;;5033322;28;20043;-84
2022/11/26 00:27:49;;;;;;;7.93;4.35;;;;;;;;;;5032774;28;20495;-84
2022/11/26 00:30:32;;;;;;;5.72;3.72;;;;;;;;;;5031046;28;20090;-85
2022/11/26 00:32:57;;;;;;;5.05;3.30;;;;;;;;;;5030161;28;20033;-85
2022/11/26 00:35:22;;;;;;;5.83;3.43;;;;;;;;;;5032484;28;20048;-84
2022/11/26 00:37:50;;;;;;;5.50;3.37;;;;;;;;;;5036336;28;20272;-85
2022/11/26 00:40:21;;;;;;;5.32;3.55;;;;;;;;;;5037084;28;20272;-85
2022/11/26 00:42:46;;;;;;;6.20;3.85;;;;;;;;;;5032371;28;20441;-84
2022/11/26 00:45:15;;;;;;;7.53;3.90;;;;;;;;;;5038184;28;20037;-84
2022/11/26 00:47:41;;;;;;;6.75;4.10;;;;;;;;;;5018948;28;20068;-84
2022/11/26 00:50:07;;;;;;;8.00;4.83;;;;;;;;;;5044314;28;20029;-85
2022/11/26 00:52:33;;;;;;;8.00;4.90;;;;;;;;;;5034612;28;20037;-84
2022/11/26 00:55:02;;;;;;;7.30;4.28;;;;;;;;;;5050781;28;20048;-84
2022/11/26 00:57:27;;;;;;;6.68;4.28;;;;;;;;;;5032865;28;20045;-84
2022/11/26 00:59:52;;;;;;;7.68;3.35;;;;;;;;;;5033803;28;20482;-84
2022/11/26 01:02:17;;;;;;;5.57;3.47;;;;;;;;;;5051622;28;20048;-85
2022/11/26 01:04:43;;;;;;;6.43;3.97;;;;;;;;;;5034818;28;20048;-85
2022/11/26 01:07:11;;;;;;;12.02;6.20;;;;;;;;;;5050186;28;20295;-86
2022/11/26 01:09:37;;;;;;;9.90;5.95;;;;;;;;;;5032444;28;20037;-86
2022/11/26 01:12:02;;;;;;;8.57;4.95;;;;;;;;;;5048152;28;20033;-86
2022/11/26 01:14:28;;;;;;;7.43;4.43;;;;;;;;;;5032145;28;20647;-87
2022/11/26 01:16:54;;;;;;;8.77;4.37;;;;;;;;;;5030364;28;20036;-86
2022/11/26 01:19:19;;;;;;;6.00;3.88;;;;;;;;;;5044737;28;20491;-87
2022/11/26 01:21:45;;;;;;;5.68;3.42;;;;;;;;;;5027246;28;20048;-86
2022/11/26 01:24:10;;;;;;;6.27;4.30;;;;;;;;;;5030711;28;20058;-87
2022/11/26 01:26:39;;;;;;;9.83;4.50;;;;;;;;;;5049445;28;20382;-86
2022/11/26 01:29:04;;;;;;;5.40;3.60;;;;;;;;;;5049314;28;20283;-87
2022/11/26 01:31:30;;;;;;;6.35;3.40;;;;;;;;;;5028263;28;20063;-88
2022/11/26 01:33:55;;;;;;;5.30;3.38;;;;;;;;;;5030730;28;20029;-85
2022/11/26 01:36:27;;;;;;;5.93;3.60;;;;;;;;;;5046371;28;22520;-86
2022/11/26 01:38:54;;;;;;;7.07;3.80;;;;;;;;;;5030650;28;20078;-86
2022/11/26 01:41:38;;;;;;;9.23;3.70;;;;;;;;;;5027178;28;20033;-87
2022/11/26 01:44:05;;;;;;;6.57;3.33;;;;;;;;;;5041716;28;20892;-86
2022/11/26 01:46:33;;;;;;;4.30;2.72;;;;;;;;;;5044452;28;20052;-86
2022/11/26 01:49:14;;;;;;;5.93;2.92;;;;;;;;;;5048486;28;20029;-86
2022/11/26 01:51:39;;;;;;;5.45;2.85;;;;;;;;;;5047385;28;20039;-86
2022/11/26 01:54:06;;;;;;;4.70;3.20;;;;;;;;;;5029967;28;20045;-86
2022/11/26 01:56:34;;;;;;;5.07;2.90;;;;;;;;;;5044328;28;20048;-86
2022/11/26 01:59:11;;;;;;;5.28;2.90;;;;;;;;;;5030011;28;20394;-87
2022/11/26 02:01:36;;;;;;;6.22;3.15;;;;;;;;;;5030582;28;20116;-85
2022/11/26 02:04:12;;;;;;;8.38;3.25;;;;;;;;;;5029590;28;20171;-89
2022/11/26 02:06:38;;;;;;;7.00;3.15;;;;;;;;;;5030467;28;20048;-86
2022/11/26 02:09:04;;;;;;;4.90;3.03;;;;;;;;;;5030144;28;20034;-87
2022/11/26 02:11:30;;;;;;;5.75;2.95;;;;;;;;;;5027754;28;20061;-86
2022/11/26 02:13:58;;;;;;;6.50;2.72;;;;;;;;;;5027791;28;20126;-87
2022/11/26 02:16:43;;;;;;;4.35;2.55;;;;;;;;;;5023170;28;20040;-87
2022/11/26 02:19:11;;;;;;;8.52;2.78;;;;;;;;;;5031327;28;20596;-86
2022/11/26 02:21:39;;;;;;;4.70;2.80;;;;;;;;;;5031566;28;20120;-87
2022/11/26 02:24:05;;;;;;;7.22;4.00;;;;;;;;;;5031623;28;20049;-86
2022/11/26 02:26:48;;;;;;;8.98;3.88;;;;;;;;;;5030913;28;20088;-86
2022/11/26 02:29:19;;;;;;;7.60;3.67;;;;;;;;;;5031369;28;20076;-86
2022/11/26 02:31:51;;;;;;;8.20;3.85;;;;;;;;;;5029952;28;20071;-86
2022/11/26 02:34:20;;;;;;;7.07;3.88;;;;;;;;;;5036985;28;20056;-86
2022/11/26 02:36:52;;;;;;;6.20;3.65;;;;;;;;;;5050386;28;20033;-87
2022/11/26 02:39:18;;;;;;;7.93;4.10;;;;;;;;;;5037357;28;20052;-87
2022/11/26 02:41:45;;;;;;;5.30;3.55;;;;;;;;;;5027868;28;20569;-87
2022/11/26 02:44:12;;;;;;;7.22;3.75;;;;;;;;;;5027944;28;20049;-87
2022/11/26 02:46:38;;;;;;;6.90;3.83;;;;;;;;;;5015127;28;20032;-87
2022/11/26 02:49:04;;;;;;;5.45;3.25;;;;;;;;;;5025484;28;20037;-86
2022/11/26 02:51:29;;;;;;;4.28;2.95;;;;;;;;;;5048667;28;20033;-87
2022/11/26 02:53:55;;;;;;;4.85;2.63;;;;;;;;;;5049313;28;20029;-87
2022/11/26 02:56:23;;;;;;;7.93;2.67;;;;;;;;;;5031451;28;20706;-87
2022/11/26 02:58:49;;;;;;;6.10;3.00;;;;;;;;;;5026121;28;20509;-87
2022/11/26 03:01:18;;;;;;;4.63;2.80;;;;;;;;;;5031735;28;20175;-87
2022/11/26 03:03:46;;;;;;;6.35;3.90;;;;;;;;;;5031773;28;20041;-87
2022/11/26 03:06:12;;;;;;;6.18;3.97;;;;;;;;;;5030904;28;20033;-88
2022/11/26 03:08:38;;;;;;;5.05;3.40;;;;;;;;;;5031320;28;20040;-87
2022/11/26 03:11:03;;;;;;;4.70;3.33;;;;;;;;;;5048977;28;20494;-87
2022/11/26 03:13:29;;;;;;;6.13;3.20;;;;;;;;;;5031115;28;20715;-87
2022/11/26 03:15:54;;;;;;;7.63;3.70;;;;;;;6.05;nan;101472.72;5031099;28;20450;-87
2022/11/26 03:18:19;;;;;;;8.38;3.50;;;;;;;;;;5029935;28;20104;-87
2022/11/26 03:20:44;;;;;;;5.07;3.20;;;;;;;;;;5043995;28;20117;-87
2022/11/26 03:23:10;;;;;;;5.97;3.27;;;;;;;;;;5047187;28;20378;-87
2022/11/26 03:25:35;;;;;;;4.37;3.00;;;;;;;;;;5031042;28;20362;-87
2022/11/26 03:28:01;;;;;;;5.13;3.10;;;;;;;;;;5031022;28;20514;-87
2022/11/26 03:30:26;;;;;;;6.93;3.35;;;;;;;;;;5030216;28;20278;-87
2022/11/26 03:32:51;;;;;;;7.20;3.63;;;;;;;;;;5026642;28;20117;-87
2022/11/26 03:35:17;;;;;;;8.27;3.90;;;;;;;;;;5027107;28;20033;-87
2022/11/26 03:37:42;;;;;;;8.40;3.97;;;;;;;;;;5029253;28;20505;-87
2022/11/26 03:40:07;;;;;;;;;;;;;;;;;;5044723;28;20052;-87
2022/11/26 03:42:32;;;;;;;7.82;3.95;;;;;;;;;;5039605;28;19921;-87
2022/11/26 03:44:57;;;;;;;5.87;3.63;;;;;;;;;;5031362;28;20059;-87
2022/11/26 03:47:23;;;;;;;7.00;3.00;;;;;;;;;;5029968;28;20283;-87
2022/11/26 03:49:48;;;;;;;5.88;3.42;;;;;;;;;;5027510;28;20288;-86
2022/11/26 03:52:13;;;;;;;4.77;3.30;;;;;;;;;;5022722;28;20060;-87
2022/11/26 03:54:38;;;;;;;5.55;3.25;;;;;;;;;;5041594;28;20284;-87
2022/11/26 03:57:04;;;;;;;4.40;2.83;;;;;;;;;;5021383;28;20676;-86
2022/11/26 03:59:29;;;;;;;5.57;3.10;;;;;;;;;;5030795;28;20036;-87
2022/11/26 04:01:54;;;;;;;5.93;3.40;;;;;;;;;;5048624;28;20401;-87
2022/11/26 04:04:19;;;;;;;7.53;3.57;;;;;;;;;;5049272;28;20405;-87
2022/11/26 04:06:45;;;;;;;6.73;3.83;;;;;;;22.54;100.00;159590.91;5039990;28;20809;-87
2022/11/26 04:09:10;;;;;;;7.73;3.70;;;;;;;;;;5038309;28;20497;-87
2022/11/26 04:11:35;;;;;;;5.53;3.25;;;;;;;;;;5044726;28;20040;-87
2022/11/26 04:14:00;;;;;;;;;;;;;;;;;;5045392;28;20145;-86
2022/11/26 04:16:26;;;;;;;5.03;2.70;;;;;;;;;;5058040;28;19927;-87
2022/11/26 04:18:51;;;;;;;3.75;2.80;;;;;;;;;;5041927;28;20039;-87
2022/11/26 04:21:16;;;;;;;4.28;2.72;;;;;;;;;;5043144;28;20067;-86
2022/11/26 04:23:41;;;;;;;4.93;2.30;;;;;;;;;;5040097;28;20048;-87
2022/11/26 04:26:07;;;;;;;3.87;2.40;;;;;;;;;;5043803;28;20064;-87
2022/11/26 04:28:32;;;;;;;4.57;2.67;;;;;;;;;;5043421;28;20043;-87
2022/11/26 04:30:57;;;;;;;8.00;3.28;;;;;;;;;;5028395;28;20292;-87
2022/11/26 04:33:25;;;;;;;5.27;3.17;;;;;;;;;;5040161;28;20045;-87
2022/11/26 04:35:50;;;;;;;8.63;3.70;;;;;;;;;;5043745;28;20134;-86
2022/11/26 04:38:16;;;;;;;7.57;3.40;;;;;;;;;;5046186;28;20096;-87
2022/11/26 04:40:41;;;;;;;5.90;3.27;;;;;;;;;;5045921;28;20317;-87
2022/11/26 04:43:06;;;;;;;4.23;2.47;;;;;;;;;;5036845;28;20271;-87
2022/11/26 04:45:31;;;;;;;5.10;2.72;;;;;;;;;;5036991;28;20116;-86
2022/11/26 04:47:57;;;;;;;6.75;2.65;;;;;;;;;;5017648;28;20087;-86
2022/11/26 04:50:22;;;;;;;7.95;3.63;;;;;;;4.57;nan;101596.16;5022656;28;20663;-86
2022/11/26 04:52:48;;;;;;;4.85;2.83;;;;;;;;;;5037194;28;20029;-86
2022/11/26 04:55:13;;;;;;;5.63;3.20;;;;;;;;;;5055284;28;20502;-86
2022/11/26 04:57:39;;;;;;;6.93;3.67;;;;;;;;;;5037173;28;20033;-87
2022/11/26 05:00:05;;;;;;;5.82;3.35;;;;;;;;;;5033839;28;20120;-87
2022/11/26 05:02:30;;;;;;;5.65;3.83;;;;;;;;;;5017060;28;20037;-87
2022/11/26 05:04:55;;;;;;;5.77;3.70;;;;;;;;;;5027408;28;20033;-86
2022/11/26 05:07:20;;;;;;;4.78;2.95;;;;;;;;;;5053298;28;20045;-87
2022/11/26 05:09:45;;;;;;;5.33;3.37;;;;;;;;;;5034310;28;20037;-87
2022/11/26 05:12:11;;;;;;;5.70;3.38;;;;;;;;;;5036560;28;20037;-87
2022/11/26 05:14:36;;;;;;;4.03;2.72;;;;;;;;;;5051826;28;20044;-87
2022/11/26 05:17:02;;;;;;;5.78;2.85;;;;;;;;;;5028366;28;20191;-87
2022/11/26 05:19:27;;;;;;;5.67;3.13;;;;;;;;;;5033096;28;20636;-87
2022/11/26 05:21:52;;;;;;;7.30;3.70;;;;;;;;;;5029071;28;20504;-87
2022/11/26 05:24:17;;;;;;;6.50;3.20;;;;;;;;;;5029603;28;20033;-87
2022/11/26 05:26:42;;;;;;;9.53;4.93;;;;;;;;;;5029798;28;20557;-87
2022/11/26 05:29:08;;;;;;;6.80;3.92;;;;;;;;;;5030747;28;20295;-87
2022/11/26 05:31:33;;;;;;;5.27;3.33;;;;;;;;;;5029158;28;20135;-87
2022/11/26 05:33:58;;;;;;;5.03;3.20;;;;;;;;;;5029607;28;20390;-87
2022/11/26 05:36:23;;;;;;;5.60;3.40;;;;;;;;;;5044795;28;20756;-87
2022/11/26 05:38:48;;;;;;;5.37;3.20;;;;;;;;;;5032059;28;20028;-88
2022/11/26 05:41:14;;;;;;;7.33;3.60;;;;;;;;;;5031225;28;20485;-87
2022/11/26 05:43:39;;;;;;;6.60;3.60;;;;;;;;;;5031697;28;20052;-88
2022/11/26 05:46:05;;;;;;;5.93;3.80;;;;;;;;;;5044870;28;20038;-87
2022/11/26 05:48:30;;;;;;;7.20;3.53;;;;;;;;;;5029159;28;20572;-87
2022/11/26 05:50:57;;;;;;;7.43;4.03;;;;;;;;;;5050440;28;20032;-88
2022/11/26 05:53:22;;;;;;;6.07;3.55;;;;;;;;;;5031617;28;20561;-87
2022/11/26 05:55:47;;;;;;;7.50;3.50;;;;;;;;;;5032397;28;20358;-87
2022/11/26 05:58:13;;;;;;;5.20;3.20;;;;;;;;;;5043037;28;20037;-87
2022/11/26 06:00:38;;;;;;;6.10;3.30;;;;;;;;;;5032229;28;20378;-88
2022/11/26 06:03:03;;;;;;;5.63;2.95;;;;;;;;;;5031793;28;20040;-88
2022/11/26 06:05:29;;;;;;;4.63;2.97;;;;;;;;;;5049916;28;20589;-87
2022/11/26 06:07:54;;;;;;;6.22;3.72;;;;;;;;;;5032194;28;20371;-88
2022/11/26 06:10:19;;;;;;;;;;;;;;;;;;5031978;28;20052;-87
2022/11/26 06:12:44;;;;;;;8.53;4.43;;;;;;;;;;5031551;28;20075;-87
2022/11/26 06:15:09;;;;;;;10.07;4.97;;;;;;;;;;5031448;28;20041;-87
2022/11/26 06:17:35;;;;;;;7.75;4.45;;;;;;;;;;5021722;28;20283;-87
2022/11/26 06:20:00;;;;;;;5.93;3.63;;;;;;;;;;5032070;28;20452;-87
2022/11/26 06:22:25;;;;;;;9.85;4.20;;;;;;;;;;5031139;28;20345;-87
2022/11/26 06:24:50;;;;;;;6.93;3.80;;;;;;;;;;5050239;28;20068;-87
2022/11/26 06:27:15;;;;;;;5.40;3.47;;;;;;;;;;5032060;28;20276;-87
2022/11/26 06:29:41;;;;;;;5.07;3.03;;;;;;;;;;5032392;28;20394;-87
2022/11/26 06:32:06;;;;;;;5.10;3.10;;;;;;;;;;5032007;28;20057;-88
2022/11/26 06:34:31;;;;;;;5.70;3.30;;;;;;;;;;5027663;28;20334;-87
2022/11/26 06:36:56;;;;;;;5.85;3.00;;;;;;;;;;5014275;28;20268;-87
2022/11/26 06:39:22;;;;;;;5.00;3.23;;;;;;;;;;5025218;28;20033;-88
2022/11/26 06:41:47;;;;;;;9.80;5.20;;;;;;;;;;5032533;28;20033;-88
2022/11/26 06:44:12;;;;;;;9.48;4.60;;;;;;;;;;5049087;28;20041;-88
2022/11/26 06:46:37;;;;;;;7.30;4.63;;;;;;;;;;5030418;28;20032;-87
2022/11/26 06:49:03;;;;;;;7.37;4.40;;;;;;;;;;5034072;28;20415;-88
2022/11/26 06:51:28;;;;;;;6.03;3.67;;;;;;;;;;5022585;28;20288;-87
2022/11/26 06:53:54;;;;;;;5.07;3.33;;;;;;;;;;5014417;28;20033;-87
2022/11/26 06:56:19;;;;;;;5.73;3.80;;;;;;;;;;5022695;28;20280;-87
2022/11/26 06:58:45;;;;;;;6.90;4.05;;;;;;;;;;5029420;28;20083;-88
2022/11/26 07:01:18;;;;;;;5.55;3.83;;;;;;;;;;5012215;28;20136;-87
2022/11/26 07:03:43;;;;;;;6.03;3.90;;;;;;;;;;5036110;28;20090;-87
2022/11/26 07:06:18;;;;;;;9.68;5.28;;;;;;;;;;5030739;28;20041;-87
2022/11/26 07:08:44;;;;;;;14.52;9.52;;;;;;;;;;5048987;28;20041;-87
2022/11/26 07:11:09;;;;;;;17.17;10.02;;;;;;;;;;5012921;28;20121;-87
2022/11/26 07:13:35;;;;;;;13.93;8.38;;;;;;;;;;5018238;28;20124;-87
2022/11/26 07:16:01;;;;;;;13.68;6.78;;;;;;;;;;5031738;28;20063;-88
2022/11/26 07:18:26;;;;;;;10.50;6.45;;;;;;;;;;5031670;28;20056;-87
2022/11/26 07:20:52;;;;;;;9.73;6.10;;;;;;;;;;5032593;28;20560;-87
2022/11/26 07:23:17;;;;;;;10.63;6.00;;;;;;;;;;5031687;28;20288;-87
2022/11/26 07:25:42;;;;;;;10.05;5.60;;;;;;;;;;5027879;28;20064;-87
2022/11/26 07:28:07;;;;;;;8.97;5.00;;;;;;;;;;5021847;28;20070;-87
2022/11/26 07:30:33;;;;;;;7.90;4.30;;;;;;;;;;5031849;28;20052;-87
2022/11/26 07:32:58;;;;;;;7.60;4.45;;;;;;;;;;5030160;28;20386;-87
2022/11/26 07:35:23;;;;;;;9.80;5.15;;;;;;;;;;5028957;28;20049;-87
2022/11/26 07:37:48;;;;;;;9.67;5.27;;;;;;;;;;5021666;28;20512;-87
2022/11/26 07:40:14;;;;;;;8.23;4.70;;;;;;;;;;5039741;28;20292;-87
2022/11/26 07:42:39;;;;;;;7.60;4.55;;;;;;;;;;5047142;28;20283;-87
2022/11/26 07:45:04;;;;;;;7.00;4.50;;;;;;;;;;5038816;28;20063;-87
2022/11/26 07:47:30;;;;;;;12.68;5.97;;;;;;;;;;5029173;28;20287;-88
2022/11/26 07:49:55;;;;;;;9.13;5.93;;;;;;;;;;5043237;28;20041;-87
2022/11/26 07:52:20;;;;;;;12.67;6.30;;;;;;;;;;5042113;28;20284;-88
2022/11/26 07:54:45;;;;;;;9.23;5.53;;;;;;;22.39;0.00;159918.91;5044147;28;20041;-87
2022/11/26 07:57:11;;;;;;;8.13;4.70;;;;;;;;;;5040580;28;20060;-88
2022/11/26 07:59:36;;;;;;;6.50;4.32;;;;;;;;;;5050065;28;20037;-88
2022/11/26 08:02:01;;;;;;;6.40;3.93;;;;;;;;;;5030442;28;20045;-88
2022/11/26 08:04:26;;;;;;;5.80;3.73;;;;;;;;;;5030128;28;20123;-87
2022/11/26 08:06:51;;;;;;;7.53;4.33;;;;;;;;;;5030501;28;20040;-88
2022/11/26 08:09:17;;;;;;;10.20;4.90;;;;;;;;;;5030447;28;20051;-88
2022/11/26 08:11:42;;;;;;;9.40;5.38;;;;;;;;;;5030147;28;20314;-88
2022/11/26 08:14:11;;;;;;;10.37;5.03;;;;;;;;;;5029571;28;20120;-88
2022/11/26 08:16:36;;;;;;;7.85;4.55;;;;;;;;;;5047655;28;20506;-88
2022/11/26 08:19:04;;;;;;;8.30;4.32;;;;;;;;;;5010173;28;20100;-88
2022/11/26 08:21:29;;;;;;;6.93;4.53;;;;;;;;;;5010301;28;20407;-88
2022/11/26 08:23:55;;;;;;;10.18;5.32;;;;;;;;;;5044831;28;20092;-88
2022/11/26 08:26:20;;;;;;;6.13;4.05;;;;;;;;;;5029773;28;20041;-88
2022/11/26 08:28:46;;;;;;;6.05;3.75;;;;;;;;;;5047827;28;20048;-88
2022/11/26 08:31:12;;;;;;;7.25;3.90;;;;;;;;;;5047889;28;20039;-88
2022/11/26 08:33:38;;;;;;;4.93;3.72;;;;;;;;;;5029431;28;20099;-88
2022/11/26 08:36:03;;;;;;;8.35;4.28;;;;;;;;;;5029397;28;20445;-88
2022/11/26 08:38:29;;;;;;;7.20;4.10;;;;;;;;;;5029926;28;20033;-88
2022/11/26 08:40:58;;;;;;;4.88;3.30;;;;;;;;;;5026322;28;20030;-88
2022/11/26 08:43:23;;;;;;;7.80;4.53;;;;;;;;;;5028207;28;20037;-88
2022/11/26 08:45:53;;;;;;;7.05;3.78;;;;;;;;;;5045172;28;20056;-88
2022/11/26 08:48:18;;;;;;;8.98;3.80;;;;;;;;;;5010025;28;20387;-88
2022/11/26 08:50:43;;;;;;;5.85;3.72;;;;;;;;;;5027242;28;20044;-89
2022/11/26 08:53:08;;;;;;;7.47;3.50;;;;;;;;;;5029783;28;20045;-88
2022/11/26 08:55:33;;;;;;;9.03;4.50;;;;;;;;;;5029451;28;20113;-88
2022/11/26 08:57:58;;;;;;;10.50;5.27;;;;;;;;;;5032509;28;20033;-89
2022/11/26 09:00:24;;;;;;;9.67;4.20;;;;;;;;;;5032676;28;20036;-88
2022/11/26 09:02:49;;;;;;;10.50;5.03;;;;;;;;;;5033140;28;20068;-88
2022/11/26 09:05:14;;;;;;;12.20;5.03;;;;;;;;;;5033444;28;20283;-88
2022/11/26 09:07:39;;;;;;;8.80;4.73;;;;;;;;;;5033114;28;20673;-88
2022/11/26 09:10:05;;;;;;;10.80;5.60;;;;;;;;;;5028131;28;20280;-88
2022/11/26 09:12:30;;;;;;;10.98;5.60;;;;;;;;;;5031298;28;20498;-88
2022/11/26 09:14:55;;;;;;;14.47;6.63;;;;;;;;;;5033390;28;20082;-88
2022/11/26 09:17:20;;;;;;;15.50;6.87;;;;;;;;;;5020022;28;20276;-88
2022/11/26 09:19:46;;;;;;;16.00;6.50;;;;;;;;;;5013764;28;20495;-88
2022/11/26 09:22:11;;;;;;;13.93;6.40;;;;;;;;;;5030707;28;20044;-88
2022/11/26 09:24:36;;;;;;;14.70;6.40;;;;;;;;;;5025240;28;20268;-89
2022/11/26 09:27:01;;;;;;;14.50;6.45;;;;;;;;;;5030550;28;20537;-88
2022/11/26 09:29:27;;;;;;;10.60;5.50;;;;;;;;;;5028878;28;20383;-88
2022/11/26 09:31:52;;;;;;;13.10;5.77;;;;;;;;;;5030679;28;20040;-88
2022/11/26 09:34:17;;;;;;;10.45;5.30;;;;;;;;;;5013223;28;20631;-88
2022/11/26 09:36:43;;;;;;;13.88;5.82;;;;;;;;;;5027059;28;20232;-89
2022/11/26 09:39:10;;;;;;;13.07;5.63;;;;;;;;;;5029843;28;20057;-88
2022/11/26 09:41:36;;;;;;;15.50;5.80;;;;;;;;;;5039021;28;20032;-88
2022/11/26 09:44:21;;;;;;;15.93;6.90;;;;;;;;;;5050247;28;20041;-89
2022/11/26 09:46:53;;;;;;;12.77;5.45;;;;;;;;;;5032308;28;20029;-88
2022/11/26 09:49:18;;;;;;;;;;;;;;;;;;5050914;28;20570;-88
2022/11/26 09:51:45;;;;;;;16.65;8.00;;;;;;;;;;5033376;28;20308;-88
2022/11/26 09:54:15;;;;;;;15.30;7.38;;;;;;;;;;5048869;28;20406;-88
2022/11/26 09:56:40;;;;;;;16.75;9.00;;;;;;;;;;5033182;28;20528;-88
2022/11/26 09:59:09;;;;;;;20.98;9.27;;;;;;;;;;5032923;28;20033;-88
2022/11/26 10:01:34;;;;;;;17.80;8.50;;;;;;;;;;5032666;28;20387;-88
2022/11/26 10:03:59;;;;;;;17.63;8.33;;;;;;;;;;5035179;28;20244;-87
2022/11/26 10:06:43;;;;;;;19.45;8.95;;;;;;;;;;5050505;28;20040;-88
2022/11/26 10:09:11;;;;;;;19.70;8.35;;;;;;;;;;5034429;28;20219;-87
2022/11/26 10:12:03;;;;;;;16.48;8.57;;;;;;;;;;5032442;28;20399;-87
2022/11/26 10:14:36;;;;;;;12.93;6.80;;;;;;;;;;5006974;28;20453;-87
2022/11/26 10:17:04;;;;;;;13.20;6.40;;;;;;;;;;5050196;28;20040;-87
2022/11/26 10:19:48;;;;;;;15.57;6.68;;;;;;;;;;5031372;28;20231;-87
2022/11/26 10:22:27;;;;;;;13.18;7.40;;;;;;;;;;5030514;28;20044;-88
2022/11/26 10:24:53;;;;;;;14.65;7.10;;;;;;;;;;5049976;28;20055;-88
2022/11/26 10:27:19;;;;;;;15.48;7.80;;;;;;;;;;5031508;28;20037;-88
2022/11/26 10:29:47;;;;;;;11.90;6.38;;;;;;;;;;5032051;28;20064;-87
2022/11/26 10:32:15;;;;;;;14.32;7.57;;;;;;;;;;5032600;28;20287;-88
2022/11/26 10:34:44;;;;;;;11.98;6.90;;;;;;;;;;5032902;28;20366;-87
2022/11/26 10:37:10;;;;;;;13.07;7.03;;;;;;;;;;5027594;28;20045;-88
2022/11/26 10:39:35;;;;;;;10.40;6.57;;;;;;;;;;5037784;28;20035;-87
2022/11/26 10:42:12;;;;;;;10.20;6.60;;;;;;;;;;5029779;28;20089;-88
2022/11/26 10:44:38;;;;;;;14.98;8.27;;;;;;;;;;5056351;28;20045;-88
2022/11/26 10:47:23;;;;;;;14.65;8.38;;;;;;;;;;5039202;28;20052;-87
2022/11/26 10:49:49;;;;;;;14.65;9.07;;;;;;;;;;5058092;28;20053;-87
2022/11/26 10:52:16;;;;;;;14.73;9.13;;;;;;;;;;5056795;28;20041;-88
2022/11/26 10:54:43;;;;;;;18.77;9.23;;;;;;;;;;5040924;28;20052;-87
2022/11/26 10:57:08;;;;;;;16.75;10.02;;;;;;;;;;5035185;28;20626;-87
2022/11/26 10:59:44;;;;;;;14.43;9.45;;;;;;;;;;5036185;28;20041;-87
2022/11/26 11:02:19;;;;;;;16.15;9.10;;;;;;;;;;5039813;28;20075;-88
2022/11/26 11:04:44;;;;;;;15.05;9.27;;;;;;;;;;5054815;28;20083;-87
2022/11/26 11:07:29;;;;;;;15.77;8.77;;;;;;;;;;5035365;28;20060;-87
2022/11/26 11:10:22;;;;;;;17.45;9.07;;;;;;;;;;5034556;28;20032;-88
2022/11/26 11:12:49;;;;;;;19.45;9.77;;;;;;;;;;5034094;28;20525;-88
2022/11/26 11:15:19;;;;;;;16.25;9.60;;;;;;;;;;5039273;28;20041;-87
2022/11/26 11:17:46;;;;;;;16.75;9.40;;;;;;;;;;5038418;28;20033;-88
2022/11/26 11:20:14;;;;;;;20.52;9.45;;;;;;;;;;5038710;28;20029;-87
2022/11/26 11:22:39;;;;;;;16.30;9.70;;;;;;;;;;5033454;28;20223;-87
2022/11/26 11:25:05;;;;;;;17.70;10.07;;;;;;;;;;5038818;28;20052;-88
2022/11/26 11:27:37;;;;;;;17.73;10.20;;;;;;;;;;5038714;28;20175;-88
2022/11/26 11:30:02;;;;;;;16.63;9.55;;;;;;;;;;5042500;28;20094;-88
2022/11/26 11:32:38;;;;;;;16.75;9.52;;;;;;;;;;5035018;28;20116;-88
2022/11/26 11:35:32;;;;;;;19.38;11.05;;;;;;;;;;5033581;28;20052;-88
2022/11/26 11:37:58;;;;;;;18.27;10.27;;;;;;;;;;5013551;28;20517;-88
2022/11/26 11:40:26;;;;;;;19.92;10.20;;;;;;;;;;5027036;28;20041;-88
2022/11/26 11:42:54;;;;;;;15.70;9.80;;;;;;;;;;5041660;28;20059;-88
2022/11/26 11:45:22;;;;;;;17.15;10.30;;;;;;;;;;5046896;28;20095;-88
2022/11/26 11:47:49;;;;;;;15.90;9.75;;;;;;;;;;5049047;28;21410;-88
2022/11/26 11:50:19;;;;;;;17.55;10.80;;;;;;;;;;5025634;28;20040;-88
2022/11/26 11:52:51;;;;;;;16.67;9.30;;;;;;;;;;5037911;28;20025;-89
2022/11/26 11:55:16;;;;;;;14.90;10.10;;;;;;;;;;5010728;28;20041;-88
2022/11/26 11:57:56;;;;;;;20.93;12.73;;;;;;;;;;5042739;28;20503;-88
2022/11/26 12:00:23;;;;;;;20.38;12.00;;;;;;;;;;5026760;28;20056;-87
2022/11/26 12:03:11;;;;;;;17.58;11.73;;;;;;;;;;5030377;28;20086;-88
2022/11/26 12:05:39;;;;;;;18.48;11.40;;;;;;;;;;5036054;28;20111;-88
2022/11/26 12:08:05;;;;;;;18.67;11.30;;;;;;;;;;5030214;28;20479;-88
2022/11/26 12:10:36;;;;;;;17.58;11.77;;;;;;;;;;5047021;28;20071;-88
2022/11/26 12:13:04;;;;;;;19.48;11.85;;;;;;;;;;5044439;28;20117;-87
2022/11/26 12:15:33;;;;;;;17.65;11.43;;;;;;;;;;5029340;28;20037;-87
2022/11/26 12:18:07;;;;;;;18.52;11.57;;;;;;;;;;5028543;28;20044;-87
2022/11/26 12:20:43;;;;;;;19.95;12.07;;;;;;;;;;5027817;28;20498;-88
2022/11/26 12:23:11;;;;;;;20.48;11.27;;;;;;;;;;5024638;28;20060;-87
2022/11/26 12:25:37;;;;;;;16.13;10.07;;;;;;;;;;5029794;28;20050;-88
2022/11/26 12:28:15;;;;;;;17.08;10.30;;;;;;;;;;5017846;28;20072;-88
2022/11/26 12:31:00;;;;;;;20.45;10.02;;;;;;;;;;5042342;28;20122;-88
2022/11/26 12:33:34;;;;;;;15.68;10.43;;;;;;;;;;5041534;28;20398;-88
2022/11/26 12:36:06;;;;;;;19.55;11.07;;;;;;;;;;5040986;28;20029;-88
2022/11/26 12:38:52;;;;;;;16.35;9.82;;;;;;;;;;5028447;28;20044;-89
2022/11/26 12:41:19;;;;;;;15.60;9.38;;;;;;;;;;5027660;28;20039;-88
2022/11/26 12:44:04;;;;;;;17.48;9.73;;;;;;;;;;5027051;28;20091;-88
2022/11/26 12:46:37;;;;;;;16.58;10.52;;;;;;;8.00;nan;101640.22;5026478;28;20063;-88
2022/11/26 12:49:21;;;;;;;15.13;8.45;;;;;;;;;;5030815;28;20029;-88
2022/11/26 12:51:53;;;;;;;11.52;8.52;;;;;;;;;;5049924;28;20327;-88
2022/11/26 12:54:25;;;;;;;11.98;7.15;;;;;;;;;;5030957;28;20037;-88
2022/11/26 12:57:08;;;;;;;11.10;7.10;;;;;;;;;;5051601;28;20037;-88
2022/11/26 12:59:36;;;;;;;8.98;5.80;;;;;;;;;;5027798;28;20509;-88
2022/11/26 13:02:14;;;;;;;13.55;8.77;;;;;;;;;;5030285;28;20037;-89
2022/11/26 13:04:39;;;;;;;16.30;8.68;;;;;;;;;;5030598;28;20043;-88
2022/11/26 13:07:07;;;;;;;13.47;7.50;;;;;;;;;;5032718;28;20123;-88
2022/11/26 13:09:49;;;;;;;13.32;8.02;;;;;;;;;;5026406;28;20563;-89
2022/11/26 13:12:17;;;;;;;10.23;6.70;;;;;;;;;;5030904;28;20037;-88
2022/11/26 13:14:54;;;;;;;10.38;6.90;;;;;;;;;;5031783;28;20052;-88
2022/11/26 13:17:22;;;;;;;12.70;7.68;;;;;;;;;;5028979;28;20517;-88
2022/11/26 13:19:59;;;;;;;17.88;8.75;;;;;;;;;;5032302;28;20044;-88
2022/11/26 13:22:43;;;;;;;13.65;7.28;;;;;;;;;;5029677;28;20087;-88
2022/11/26 13:25:28;;;;;;;13.13;6.82;;;;;;;;;;5032121;28;20041;-88
2022/11/26 13:28:08;;;;;;;13.70;6.95;;;;;;;;;;5031066;28;20041;-88
2022/11/26 13:30:39;;;;;;;13.82;7.95;;;;;;;;;;5029786;28;20480;-89
2022/11/26 13:33:23;;;;;;;13.43;7.65;;;;;;;;;;5048413;28;20032;-88
2022/11/26 13:36:07;;;;;;;11.30;6.80;;;;;;;;;;5029260;28;20532;-88
2022/11/26 13:38:50;;;;;;;11.23;6.55;;;;;;;;;;5030549;28;20518;-88
2022/11/26 13:41:25;;;;;;;12.20;6.63;;;;;;;;;;5035119;28;20096;-86
2022/11/26 13:44:09;;;;;;;15.48;7.55;;;;;;;;;;5034660;28;20033;-85
2022/11/26 13:46:38;;;;;;;12.52;6.80;;;;;;;;;;5033765;28;20560;-85
2022/11/26 13:49:07;;;;;;;13.40;7.45;;;;;;;;;;5051392;28;20045;-86
2022/11/26 13:51:42;;;;;;;13.52;7.95;;;;;;;;;;5034288;28;20041;-85
2022/11/26 13:54:14;;;;;;;15.85;8.82;;;;;;;;;;5033905;28;20087;-86
2022/11/26 13:56:40;;;;;;;11.80;7.55;;;;;;;;;;5050533;28;20052;-86
2022/11/26 13:59:22;;;;;;;13.80;8.48;;;;;;;;;;5032022;28;20052;-86
2022/11/26 14:01:47;;;;;;;14.07;7.57;;;;;;;;;;5048306;28;20441;-86
2022/11/26 14:04:21;;;;;;;11.73;7.43;;;;;;;;;;5048561;28;20116;-86
2022/11/26 14:07:02;;;;;;;11.98;6.68;;;;;;;;;;5030371;28;20033;-86
2022/11/26 14:09:46;;;;;;;10.70;6.03;;;;;;;;;;5047832;28;20037;-85
2022/11/26 14:12:11;;;;;;;11.85;6.80;;;;;;;;;;5045153;28;20043;-86
2022/11/26 14:14:38;;;;;;;10.25;5.50;;;;;;;;;;5049196;28;20079;-86
2022/11/26 14:17:03;;;;;;;10.20;5.45;;;;;;;;;;5034022;28;20067;-86
2022/11/26 14:19:38;;;;;;;14.63;7.27;;;;;;;;;;5049873;28;20041;-85
2022/11/26 14:22:04;;;;;;;11.07;6.07;;;;;;;;;;5032222;28;20844;-85
2022/11/26 14:24:48;;;;;;;8.40;5.70;;;;;;;;;;5029089;28;20077;-85
2022/11/26 14:27:17;;;;;;;9.85;5.75;;;;;;;;;;5030604;28;20150;-86
2022/11/26 14:29:43;;;;;;;7.20;4.82;;;;;;;;;;5047657;28;20087;-86
2022/11/26 14:32:12;;;;;;;13.43;7.00;;;;;;;;;;5029100;28;20528;-85
2022/11/26 14:34:41;;;;;;;15.77;8.82;;;;;;;;;;5030559;28;20163;-85
2022/11/26 14:37:13;;;;;;;15.32;8.85;;;;;;;;;;5048434;28;20040;-85
2022/11/26 14:39:38;;;;;;;16.20;9.80;;;;;;;;;;5027202;28;20282;-85